createdAt,value
2019-03-27T00:02:24.993Z,20.00
2019-03-27T00:04:53.867Z,20.85
2019-03-27T00:07:22.744Z,22.02
2019-03-27T00:09:51.636Z,19.80
2019-03-27T00:12:20.516Z,21.68
2019-03-27T00:14:49.479Z,20.37
2019-03-27T00:17:18.422Z,21.27
2019-03-27T00:19:47.327Z,22.02
2019-03-27T00:22:16.441Z,21.70
2019-03-27T00:24:45.324Z,21.62
2019-03-27T00:27:14.197Z,22.10
2019-03-27T00:29:43.059Z,22.48
2019-03-27T00:32:12.208Z,22.90
2019-03-27T00:34:41.075Z,23.65
2019-03-27T00:37:09.954Z,22.25
2019-03-27T00:39:39.795Z,21.37
2019-03-27T00:42:08.672Z,22.02
2019-03-27T00:44:37.632Z,21.50
2019-03-27T00:47:06.652Z,22.25
2019-03-27T00:49:35.518Z,21.85
2019-03-27T00:52:04.397Z,20.82
2019-03-27T00:54:33.282Z,20.75
2019-03-27T00:57:03.123Z,21.27
2019-03-27T00:59:32.096Z,20.37
2019-03-27T01:02:01.229Z,21.17
2019-03-27T01:04:30.109Z,18.48
2019-03-27T01:06:59.000Z,18.42
2019-03-27T01:09:27.884Z,17.90
2019-03-27T01:11:56.761Z,17.07
2019-03-27T01:14:25.659Z,17.50
2019-03-27T01:16:54.777Z,17.50
2019-03-27T01:19:23.663Z,17.57
2019-03-27T01:21:52.555Z,17.23
2019-03-27T01:24:21.431Z,18.27
2019-03-27T01:26:50.548Z,19.80
2019-03-27T01:29:19.716Z,18.62
2019-03-27T01:31:48.624Z,21.33
2019-03-27T01:34:17.518Z,22.85
2019-03-27T01:36:46.418Z,23.05
2019-03-27T01:39:15.295Z,23.77
2019-03-27T01:41:44.175Z,23.07
2019-03-27T01:44:13.061Z,23.50
2019-03-27T01:46:41.958Z,24.45
2019-03-27T01:49:10.841Z,24.15
2019-03-27T01:51:39.734Z,23.22
2019-03-27T01:54:08.844Z,24.85
2019-03-27T01:56:37.740Z,21.45
2019-03-27T01:59:06.616Z,22.30
2019-03-27T02:01:35.484Z,22.48
2019-03-27T02:04:04.357Z,23.90
2019-03-27T02:06:33.249Z,23.10
2019-03-27T02:09:02.116Z,23.10
2019-03-27T02:11:32.612Z,22.22
2019-03-27T02:14:01.773Z,21.85
2019-03-27T02:16:30.673Z,21.48
2019-03-27T02:18:59.541Z,22.30
2019-03-27T02:21:28.427Z,21.68
2019-03-27T02:23:57.300Z,22.40
2019-03-27T02:26:26.175Z,21.37
2019-03-27T02:28:55.070Z,21.52
2019-03-27T02:31:24.005Z,22.73
2019-03-27T02:33:52.889Z,22.90
2019-03-27T02:36:21.837Z,22.10
2019-03-27T02:38:51.679Z,21.27
2019-03-27T02:41:20.594Z,22.73
2019-03-27T02:43:49.503Z,23.60
2019-03-27T02:46:24.921Z,22.55
2019-03-27T02:48:50.958Z,23.57
2019-03-27T02:51:19.853Z,22.13
2019-03-27T02:53:48.733Z,20.95
2019-03-27T02:56:17.643Z,22.27
2019-03-27T02:58:46.511Z,22.02
2019-03-27T03:01:15.387Z,20.92
2019-03-27T03:03:44.262Z,22.25
2019-03-27T03:06:13.148Z,21.75
2019-03-27T03:08:42.017Z,23.12
2019-03-27T03:11:11.837Z,23.73
2019-03-27T03:13:40.946Z,23.70
2019-03-27T03:16:09.834Z,24.45
2019-03-27T03:18:38.725Z,23.95
2019-03-27T03:21:07.604Z,23.83
2019-03-27T03:23:36.486Z,24.23
2019-03-27T03:26:05.614Z,23.67
2019-03-27T03:28:34.495Z,23.87
2019-03-27T03:31:03.361Z,24.00
2019-03-27T03:33:32.273Z,25.08
2019-03-27T03:36:01.178Z,25.05
2019-03-27T03:38:30.074Z,24.30
2019-03-27T03:40:59.005Z,27.27
2019-03-27T03:43:27.868Z,27.60
2019-03-27T03:45:56.756Z,26.55
2019-03-27T03:48:25.644Z,27.60
2019-03-27T03:50:55.816Z,29.57
2019-03-27T03:53:25.514Z,29.40
2019-03-27T03:55:54.445Z,30.10
2019-03-27T03:58:24.293Z,29.05
2019-03-27T04:00:53.345Z,27.25
2019-03-27T04:03:23.756Z,25.92
2019-03-27T04:05:52.677Z,24.90
2019-03-27T04:08:21.577Z,25.00
2019-03-27T04:10:50.441Z,24.92
2019-03-27T04:13:19.309Z,25.15
2019-03-27T04:15:48.272Z,27.45
2019-03-27T04:18:17.209Z,26.77
2019-03-27T04:20:46.324Z,28.73
2019-03-27T04:23:15.208Z,29.42
2019-03-27T04:26:08.450Z,29.48
2019-03-27T04:28:15.153Z,28.95
2019-03-27T04:30:44.038Z,29.30
2019-03-27T04:33:13.004Z,31.10
2019-03-27T04:35:41.904Z,29.90
2019-03-27T04:38:11.054Z,29.42
2019-03-27T04:40:40.171Z,28.60
2019-03-27T04:43:09.076Z,27.62
2019-03-27T04:45:37.953Z,27.95
2019-03-27T04:48:06.840Z,29.90
2019-03-27T04:50:35.715Z,29.60
2019-03-27T04:53:05.635Z,31.15
2019-03-27T04:55:34.600Z,30.68
2019-03-27T04:58:03.572Z,33.30
2019-03-27T05:00:32.440Z,32.67
2019-03-27T05:03:01.549Z,31.30
2019-03-27T05:05:30.748Z,29.75
2019-03-27T05:07:59.864Z,29.37
2019-03-27T05:10:28.748Z,26.62
2019-03-27T05:12:57.628Z,28.92
2019-03-27T05:15:26.520Z,30.35
2019-03-27T05:17:55.395Z,27.77
2019-03-27T05:20:24.260Z,30.62
2019-03-27T05:22:53.149Z,28.00
2019-03-27T05:25:22.282Z,29.23
2019-03-27T05:27:51.160Z,29.35
2019-03-27T05:30:26.607Z,27.85
2019-03-27T05:32:55.759Z,27.15
2019-03-27T05:35:24.637Z,28.90
2019-03-27T05:37:53.559Z,28.47
2019-03-27T05:40:22.468Z,27.42
2019-03-27T05:43:00.464Z,28.15
2019-03-27T05:45:22.011Z,27.48
2019-03-27T05:47:59.394Z,28.50
2019-03-27T05:50:21.740Z,27.58
2019-03-27T05:52:50.739Z,26.95
2019-03-27T05:55:19.601Z,25.62
2019-03-27T05:57:48.565Z,26.50
2019-03-27T06:00:18.201Z,27.05
2019-03-27T06:02:47.079Z,28.87
2019-03-27T06:05:15.984Z,27.52
2019-03-27T06:07:44.872Z,26.70
2019-03-27T06:10:16.365Z,27.20
2019-03-27T06:12:44.761Z,28.83
2019-03-27T06:15:13.660Z,27.17
2019-03-27T06:17:42.610Z,28.25
2019-03-27T06:20:11.577Z,28.00
2019-03-27T06:22:40.490Z,28.07
2019-03-27T06:25:09.558Z,27.27
2019-03-27T06:27:39.869Z,26.97
2019-03-27T06:30:09.438Z,25.62
2019-03-27T06:32:38.329Z,26.52
2019-03-27T06:35:07.391Z,24.50
2019-03-27T06:37:36.577Z,25.23
2019-03-27T06:40:06.324Z,25.20
2019-03-27T06:42:35.279Z,25.95
2019-03-27T06:45:04.928Z,24.57
2019-03-27T06:47:34.026Z,22.87
2019-03-27T06:50:03.302Z,25.10
2019-03-27T06:52:32.161Z,23.57
2019-03-27T06:55:01.261Z,23.25
2019-03-27T06:57:30.120Z,24.63
2019-03-27T06:59:59.006Z,25.75
2019-03-27T07:02:29.014Z,27.75
2019-03-27T07:04:58.147Z,28.77
2019-03-27T07:07:27.016Z,26.82
2019-03-27T07:09:55.868Z,24.37
2019-03-27T07:12:25.006Z,24.23
2019-03-27T07:14:53.867Z,22.70
2019-03-27T07:17:22.743Z,24.07
2019-03-27T07:19:51.603Z,22.27
2019-03-27T07:22:20.479Z,22.27
2019-03-27T07:24:50.259Z,23.45
2019-03-27T07:27:19.147Z,25.60
2019-03-27T07:29:47.996Z,26.75
2019-03-27T07:32:16.869Z,28.55
2019-03-27T07:34:45.952Z,36.17
2019-03-27T07:37:14.817Z,38.15
2019-03-27T07:39:43.692Z,40.23
2019-03-27T07:42:12.563Z,41.10
2019-03-27T07:44:41.412Z,33.30
2019-03-27T07:47:10.279Z,29.55
2019-03-27T07:49:39.141Z,25.30
2019-03-27T07:52:08.074Z,24.92
2019-03-27T07:54:36.999Z,27.87
2019-03-27T07:57:07.820Z,26.85
2019-03-27T07:59:36.671Z,23.35
2019-03-27T08:02:05.701Z,21.77
2019-03-27T08:04:34.798Z,24.32
2019-03-27T08:07:03.952Z,23.10
2019-03-27T08:09:32.812Z,22.25
2019-03-27T08:12:01.893Z,19.70
2019-03-27T08:14:31.017Z,18.23
2019-03-27T08:17:00.123Z,17.75
2019-03-27T08:19:29.055Z,16.12
2019-03-27T08:21:57.915Z,16.25
2019-03-27T08:24:26.790Z,12.95
2019-03-27T08:26:55.651Z,14.87
2019-03-27T08:29:24.511Z,16.30
2019-03-27T08:31:53.383Z,17.50
2019-03-27T08:34:22.247Z,15.85
2019-03-27T08:36:51.119Z,11.18
2019-03-27T08:39:19.979Z,12.73
2019-03-27T08:41:48.847Z,12.28
2019-03-27T08:44:17.951Z,10.10
2019-03-27T08:46:46.803Z,9.45
2019-03-27T08:49:21.851Z,8.40
2019-03-27T08:51:47.515Z,9.88
2019-03-27T08:54:16.611Z,9.78
2019-03-27T08:56:45.464Z,9.73
2019-03-27T08:59:14.323Z,8.65
2019-03-27T09:01:43.191Z,10.65
2019-03-27T09:04:12.079Z,11.83
2019-03-27T09:06:40.936Z,10.95
2019-03-27T09:09:09.867Z,11.20
2019-03-27T09:11:38.984Z,10.75
2019-03-27T09:14:07.851Z,10.08
2019-03-27T09:16:36.727Z,10.00
2019-03-27T09:19:06.772Z,10.58
2019-03-27T09:21:35.628Z,11.20
2019-03-27T09:24:05.451Z,11.55
2019-03-27T09:26:34.332Z,11.45
2019-03-27T09:29:03.188Z,10.93
2019-03-27T09:31:43.945Z,10.93
2019-03-27T09:34:02.649Z,11.03
2019-03-27T09:36:31.507Z,11.15
2019-03-27T09:39:00.363Z,11.83
2019-03-27T09:41:29.229Z,11.08
2019-03-27T09:43:58.175Z,11.55
2019-03-27T09:46:27.040Z,11.50
2019-03-27T09:48:56.135Z,11.53
2019-03-27T09:51:25.224Z,12.30
2019-03-27T09:53:54.108Z,11.40
2019-03-27T09:56:22.964Z,10.70
2019-03-27T09:58:51.831Z,10.63
2019-03-27T10:01:20.693Z,10.43
2019-03-27T10:03:49.572Z,10.15
2019-03-27T10:06:18.432Z,10.10
2019-03-27T10:08:47.294Z,10.60
2019-03-27T10:11:16.155Z,9.53
2019-03-27T10:13:45.031Z,10.32
2019-03-27T10:16:13.891Z,10.18
2019-03-27T10:18:42.747Z,10.48
2019-03-27T10:21:11.865Z,10.60
2019-03-27T10:23:40.708Z,10.53
2019-03-27T10:26:09.580Z,10.95
2019-03-27T10:28:38.483Z,11.10
2019-03-27T10:31:07.351Z,10.95
2019-03-27T10:33:36.432Z,9.58
2019-03-27T10:36:05.296Z,11.12
2019-03-27T10:41:53.500Z,9.83
2019-03-27T10:44:22.356Z,10.03
2019-03-27T10:46:51.227Z,9.70
2019-03-27T10:49:20.098Z,9.70
2019-03-27T10:51:49.183Z,9.80
2019-03-27T10:54:18.897Z,11.55
2019-03-27T10:56:47.777Z,10.20
2019-03-27T10:59:16.637Z,10.48
2019-03-27T11:01:45.496Z,9.98
2019-03-27T11:04:14.356Z,10.58
2019-03-27T11:06:43.205Z,9.60
2019-03-27T11:09:12.085Z,10.32
2019-03-27T11:11:40.940Z,10.43
2019-03-27T11:14:09.796Z,10.45
2019-03-27T11:16:38.660Z,10.23
2019-03-27T11:19:07.527Z,10.20
2019-03-27T11:21:36.395Z,10.45
2019-03-27T11:24:05.255Z,10.88
2019-03-27T11:26:34.131Z,10.10
2019-03-27T11:29:02.995Z,10.32
2019-03-27T11:31:31.847Z,9.90
2019-03-27T11:34:00.731Z,9.73
2019-03-27T11:36:29.603Z,9.75
2019-03-27T11:38:58.452Z,9.98
2019-03-27T11:41:27.319Z,9.55
2019-03-27T11:43:56.213Z,9.38
2019-03-27T11:46:25.091Z,9.15
2019-03-27T11:48:53.949Z,10.03
2019-03-27T11:51:22.804Z,9.58
2019-03-27T11:53:51.671Z,10.15
2019-03-27T11:56:20.550Z,10.00
2019-03-27T11:58:49.436Z,9.73
2019-03-27T12:01:18.288Z,9.50
2019-03-27T12:03:47.140Z,9.13
2019-03-27T12:06:15.995Z,8.95
2019-03-27T12:08:44.856Z,9.13
2019-03-27T12:11:13.737Z,8.58
2019-03-27T12:13:42.594Z,8.08
2019-03-27T12:16:11.467Z,8.95
2019-03-27T12:18:40.323Z,9.00
2019-03-27T12:21:09.185Z,9.18
2019-03-27T12:23:38.044Z,8.43
2019-03-27T12:26:06.907Z,9.53
2019-03-27T12:28:36.029Z,10.15
2019-03-27T12:31:04.890Z,8.85
2019-03-27T12:33:33.747Z,7.83
2019-03-27T12:36:02.612Z,8.23
2019-03-27T12:38:31.483Z,8.48
2019-03-27T12:41:00.371Z,8.03
2019-03-27T12:43:29.270Z,7.85
2019-03-27T12:45:58.111Z,10.05
2019-03-27T12:48:27.010Z,8.18
2019-03-27T12:50:56.128Z,8.35
2019-03-27T12:53:25.009Z,8.68
2019-03-27T12:55:53.862Z,8.55
2019-03-27T12:58:22.724Z,8.78
2019-03-27T13:00:51.615Z,8.15
2019-03-27T13:03:20.491Z,8.93
2019-03-27T13:05:49.339Z,9.00
2019-03-27T13:08:18.199Z,8.73
2019-03-27T13:10:47.064Z,9.30
2019-03-27T13:13:16.888Z,8.18
2019-03-27T13:15:45.750Z,8.35
2019-03-27T13:18:14.619Z,8.53
2019-03-27T13:20:43.467Z,9.15
2019-03-27T13:23:12.326Z,9.10
2019-03-27T13:25:41.195Z,8.20
2019-03-27T13:28:10.138Z,8.65
2019-03-27T13:30:38.992Z,8.93
2019-03-27T13:33:07.931Z,9.10
2019-03-27T13:35:36.787Z,8.55
2019-03-27T13:38:05.655Z,8.08
2019-03-27T13:40:34.511Z,8.13
2019-03-27T13:43:03.364Z,8.28
2019-03-27T13:45:32.472Z,8.13
2019-03-27T13:48:01.562Z,8.43
2019-03-27T13:50:30.423Z,8.28
2019-03-27T13:53:00.274Z,8.98
2019-03-27T13:55:30.092Z,8.58
2019-03-27T13:57:58.952Z,9.23
2019-03-27T14:00:28.045Z,10.08
2019-03-27T14:02:56.920Z,9.60
2019-03-27T14:05:25.775Z,9.08
2019-03-27T14:07:54.695Z,9.15
2019-03-27T14:10:23.556Z,8.58
2019-03-27T14:12:52.411Z,9.15
2019-03-27T14:15:21.343Z,9.15
2019-03-27T14:17:50.200Z,8.48
2019-03-27T14:20:19.523Z,9.53
2019-03-27T14:22:49.345Z,8.48
2019-03-27T14:25:18.280Z,9.23
2019-03-27T14:27:47.135Z,9.40
2019-03-27T14:30:17.535Z,10.05
2019-03-27T14:32:46.389Z,9.20
2019-03-27T14:35:15.257Z,10.40
2019-03-27T14:37:45.085Z,10.38
2019-03-27T14:40:13.991Z,9.23
2019-03-27T14:42:42.853Z,9.63
2019-03-27T14:45:13.271Z,10.20
2019-03-27T14:47:42.151Z,9.68
2019-03-27T14:50:11.088Z,10.03
2019-03-27T14:52:39.951Z,9.88
2019-03-27T14:55:08.879Z,9.48
2019-03-27T14:57:37.735Z,9.65
2019-03-27T15:00:08.735Z,9.08
2019-03-27T15:02:37.747Z,10.13
2019-03-27T15:05:07.179Z,10.15
2019-03-27T15:07:36.055Z,9.98
2019-03-27T15:10:05.979Z,10.20
2019-03-27T15:12:35.087Z,9.73
2019-03-27T15:15:05.519Z,9.53
2019-03-27T15:17:34.467Z,9.65
2019-03-27T15:20:04.699Z,9.98
2019-03-27T15:22:33.566Z,10.53
2019-03-27T15:25:03.091Z,10.55
2019-03-27T15:27:31.969Z,9.63
2019-03-27T15:30:00.838Z,10.38
2019-03-27T15:32:29.695Z,10.40
2019-03-27T15:34:59.538Z,10.18
2019-03-27T15:37:28.394Z,10.98
2019-03-27T15:39:57.271Z,10.90
2019-03-27T15:42:26.135Z,10.82
2019-03-27T15:44:55.002Z,10.28
2019-03-27T15:47:24.100Z,10.35
2019-03-27T15:49:52.968Z,10.82
2019-03-27T15:52:35.752Z,11.73
2019-03-27T15:54:55.033Z,11.85
2019-03-27T15:57:23.895Z,11.88
2019-03-27T15:59:52.751Z,11.25
2019-03-27T16:02:21.628Z,10.45
2019-03-27T16:04:50.576Z,10.05
2019-03-27T16:07:20.479Z,9.70
2019-03-27T16:09:49.343Z,9.90
2019-03-27T16:12:18.204Z,11.03
2019-03-27T16:14:47.296Z,10.65
2019-03-27T16:17:16.155Z,10.88
2019-03-27T16:19:45.106Z,11.00
2019-03-27T16:22:14.021Z,10.72
2019-03-27T16:24:42.887Z,10.80
2019-03-27T16:27:11.748Z,10.78
2019-03-27T16:29:40.844Z,10.30
2019-03-27T16:32:09.883Z,10.60
2019-03-27T16:34:38.751Z,10.82
2019-03-27T16:37:07.620Z,12.13
2019-03-27T16:39:36.483Z,13.72
2019-03-27T16:42:06.318Z,13.72
2019-03-27T16:44:35.263Z,12.78
2019-03-27T16:47:04.123Z,11.57
2019-03-27T16:49:32.984Z,11.03
2019-03-27T16:52:02.192Z,12.43
2019-03-27T16:54:31.029Z,13.18
2019-03-27T16:56:59.891Z,14.28
2019-03-27T16:59:29.007Z,14.60
2019-03-27T17:01:57.893Z,14.38
2019-03-27T17:04:26.984Z,14.90
2019-03-27T17:06:55.839Z,14.70
2019-03-27T17:09:24.708Z,13.58
2019-03-27T17:11:53.572Z,13.75
2019-03-27T17:14:22.453Z,13.15
2019-03-27T17:16:51.311Z,13.98
2019-03-27T17:19:20.181Z,15.18
2019-03-27T17:21:49.040Z,15.30
2019-03-27T17:24:17.907Z,15.50
2019-03-27T17:26:46.852Z,15.83
2019-03-27T17:29:15.928Z,15.65
2019-03-27T17:31:44.784Z,15.10
2019-03-27T17:34:13.661Z,14.95
2019-03-27T17:36:43.486Z,16.48
2019-03-27T17:39:12.364Z,15.75
2019-03-27T17:41:41.280Z,16.57
2019-03-27T17:44:10.135Z,14.33
2019-03-27T17:46:38.997Z,13.28
2019-03-27T17:49:07.871Z,14.07
2019-03-27T17:51:36.736Z,14.33
2019-03-27T17:54:19.666Z,15.45
2019-03-27T17:56:36.184Z,15.30
2019-03-27T17:59:05.045Z,14.87
2019-03-27T18:01:34.216Z,15.48
2019-03-27T18:04:03.078Z,15.05
2019-03-27T18:06:32.178Z,16.50
2019-03-27T18:09:01.035Z,15.80
2019-03-27T18:11:31.539Z,16.73
2019-03-27T18:14:00.639Z,15.43
2019-03-27T18:16:29.732Z,15.78
2019-03-27T18:18:58.623Z,16.57
2019-03-27T18:21:27.492Z,17.48
2019-03-27T18:23:56.355Z,16.65
2019-03-27T18:26:25.211Z,17.30
2019-03-27T18:28:54.084Z,18.52
2019-03-27T18:31:22.944Z,21.35
2019-03-27T18:33:51.807Z,21.97
2019-03-27T18:36:20.663Z,21.45
2019-03-27T18:38:49.528Z,20.12
2019-03-27T18:41:18.387Z,20.02
2019-03-27T18:43:47.256Z,19.80
2019-03-27T18:46:16.131Z,19.57
2019-03-27T18:48:44.987Z,18.87
2019-03-27T18:51:13.856Z,20.40
2019-03-27T18:53:42.720Z,24.45
2019-03-27T18:56:11.804Z,26.57
2019-03-27T18:58:40.672Z,25.35
2019-03-27T19:01:09.536Z,30.92
2019-03-27T19:03:38.696Z,33.42
2019-03-27T19:06:07.803Z,32.98
2019-03-27T19:08:36.663Z,29.67
2019-03-27T19:11:05.528Z,31.30
2019-03-27T19:13:34.395Z,29.25
2019-03-27T19:16:03.262Z,29.23
2019-03-27T19:18:32.127Z,29.18
2019-03-27T19:21:01.027Z,29.48
2019-03-27T19:23:29.923Z,30.02
2019-03-27T19:25:58.787Z,32.58
2019-03-27T19:28:27.644Z,38.58
2019-03-27T19:30:56.591Z,51.65
2019-03-27T19:33:25.458Z,54.55
2019-03-27T19:35:54.319Z,56.40
2019-03-27T19:38:23.427Z,58.83
2019-03-27T19:40:52.295Z,60.60
2019-03-27T19:43:21.168Z,56.13
2019-03-27T19:45:50.122Z,59.45
2019-03-27T19:48:18.993Z,58.58
2019-03-27T19:50:47.859Z,52.62
2019-03-27T19:53:17.695Z,48.80
2019-03-27T19:55:46.564Z,49.35
2019-03-27T19:58:15.429Z,43.95
2019-03-27T20:00:44.289Z,34.65
2019-03-27T20:03:13.167Z,29.40
2019-03-27T20:05:42.024Z,27.20
2019-03-27T20:08:10.895Z,27.32
2019-03-27T20:10:39.749Z,27.42
2019-03-27T20:13:08.604Z,26.25
2019-03-27T20:15:37.687Z,24.05
2019-03-27T20:18:06.568Z,23.18
2019-03-27T20:20:36.552Z,24.77
2019-03-27T20:23:14.991Z,22.30
2019-03-27T20:25:36.153Z,23.20
2019-03-27T20:28:06.085Z,22.17
2019-03-27T20:30:35.197Z,23.00
2019-03-27T20:33:04.125Z,25.15
2019-03-27T20:35:32.991Z,24.12
2019-03-27T20:38:02.955Z,26.07
2019-03-27T20:40:31.815Z,26.42
2019-03-27T20:43:00.771Z,27.35
2019-03-27T20:45:29.868Z,26.52
2019-03-27T20:47:58.806Z,28.15
2019-03-27T20:50:27.652Z,28.23
2019-03-27T20:52:56.519Z,29.05
2019-03-27T20:55:30.401Z,28.62
2019-03-27T20:57:56.255Z,26.48
2019-03-27T21:00:25.184Z,25.65
2019-03-27T21:02:54.323Z,25.65
2019-03-27T21:05:23.181Z,26.62
2019-03-27T21:07:52.138Z,27.67
2019-03-27T21:10:20.995Z,27.52
2019-03-27T21:12:49.874Z,27.20
2019-03-27T21:15:18.960Z,26.62
2019-03-27T21:17:47.828Z,24.43
2019-03-27T21:20:16.691Z,24.72
2019-03-27T21:22:45.589Z,24.50
2019-03-27T21:25:14.439Z,24.05
2019-03-27T21:27:43.323Z,26.17
2019-03-27T21:30:12.262Z,26.52
2019-03-27T21:32:41.159Z,24.12
2019-03-27T21:35:10.208Z,23.27
2019-03-27T21:37:39.077Z,24.52
2019-03-27T21:40:08.120Z,25.08
2019-03-27T21:42:37.002Z,27.55
2019-03-27T21:45:06.839Z,25.48
2019-03-27T21:47:35.724Z,24.60
2019-03-27T21:50:07.798Z,27.10
2019-03-27T21:52:36.899Z,25.88
2019-03-27T21:55:06.568Z,27.60
2019-03-27T21:57:36.412Z,27.02
2019-03-27T22:00:05.939Z,25.60
2019-03-27T22:02:35.982Z,23.77
2019-03-27T22:05:06.035Z,26.55
2019-03-27T22:07:34.905Z,24.52
2019-03-27T22:10:05.251Z,25.52
2019-03-27T22:12:34.137Z,25.72
2019-03-27T22:15:03.573Z,25.62
2019-03-27T22:17:32.440Z,25.72
2019-03-27T22:20:01.332Z,24.67
2019-03-27T22:22:30.191Z,26.80
2019-03-27T22:24:59.047Z,26.48
2019-03-27T22:27:27.923Z,26.62
2019-03-27T22:29:56.772Z,29.92
2019-03-27T22:32:25.863Z,27.20
2019-03-27T22:34:54.719Z,27.95
2019-03-27T22:37:23.576Z,29.07
2019-03-27T22:39:52.451Z,28.87
2019-03-27T22:42:21.303Z,27.32
2019-03-27T22:44:50.179Z,32.13
2019-03-27T22:47:19.032Z,32.15
2019-03-27T22:49:47.903Z,30.75
2019-03-27T22:52:16.768Z,29.30
2019-03-27T22:54:45.631Z,29.15
2019-03-27T22:57:14.504Z,29.45
2019-03-27T22:59:43.588Z,29.00
2019-03-27T23:02:12.529Z,28.12
2019-03-27T23:04:41.379Z,28.87
2019-03-27T23:07:10.249Z,28.25
2019-03-27T23:09:39.115Z,29.55
2019-03-27T23:12:07.986Z,31.05
2019-03-27T23:14:36.847Z,30.85
2019-03-27T23:17:05.711Z,31.30
2019-03-27T23:19:34.606Z,30.43
2019-03-27T23:22:03.517Z,29.72
2019-03-27T23:24:32.402Z,31.20
2019-03-27T23:27:01.498Z,30.48
2019-03-27T23:29:30.351Z,30.97
2019-03-27T23:31:59.448Z,31.07
2019-03-27T23:34:28.611Z,31.82
2019-03-27T23:36:57.711Z,31.05
2019-03-27T23:39:26.876Z,33.53
2019-03-27T23:41:55.747Z,32.00
2019-03-27T23:44:24.603Z,34.95
2019-03-27T23:46:53.471Z,35.45
2019-03-27T23:49:22.397Z,36.30
2019-03-27T23:51:52.228Z,35.60
2019-03-27T23:54:21.311Z,35.95
2019-03-27T23:56:50.175Z,33.85
2019-03-27T23:59:19.036Z,33.58
